METAR Data
IDs: Format: Raw Decoded Include TAF

Data at: 1134 UTC 21 Apr 2021

METAR for:KEDU (Davis/University Arp, CA, US)
Text:KEDU 211115Z AUTO 00000KT 10SM CLR 09/08 A2978 RMK AO1
Temperature: 9.0°C ( 48°F)
Dewpoint: 8.0°C ( 46°F) [RH = 93%]
Pressure (altimeter):29.78 inches Hg (1008.5 mb)
Winds:calm
Visibility:10 or more sm (16+ km)
Ceiling:at least 12,000 feet AGL
Clouds:sky clear below 12,000 feet AGL
QC Flag:automated observation with no human augmentation
Text:KEDU 211055Z AUTO 00000KT 10SM CLR 10/08 A2977 RMK AO1
Temperature: 10.0°C ( 50°F)
Dewpoint: 8.0°C ( 46°F) [RH = 87%]
Pressure (altimeter):29.77 inches Hg (1008.2 mb)
Winds:calm
Visibility:10 or more sm (16+ km)
Ceiling:at least 12,000 feet AGL
Clouds:sky clear below 12,000 feet AGL
QC Flag:automated observation with no human augmentation
Text:KEDU 211035Z AUTO 00000KT 10SM CLR A2976 RMK AO1
Pressure (altimeter):29.76 inches Hg (1007.9 mb)
Winds:calm
Visibility:10 or more sm (16+ km)
Ceiling:at least 12,000 feet AGL
Clouds:sky clear below 12,000 feet AGL
QC Flag:automated observation with no human augmentation
Text:KEDU 211015Z AUTO 00000KT 10SM CLR 10/08 A2977 RMK AO1
Temperature: 10.0°C ( 50°F)
Dewpoint: 8.0°C ( 46°F) [RH = 87%]
Pressure (altimeter):29.77 inches Hg (1008.2 mb)
Winds:calm
Visibility:10 or more sm (16+ km)
Ceiling:at least 12,000 feet AGL
Clouds:sky clear below 12,000 feet AGL
QC Flag:automated observation with no human augmentation
Text:KEDU 210955Z AUTO 00000KT 10SM CLR 10/08 A2978 RMK AO1
Temperature: 10.0°C ( 50°F)
Dewpoint: 8.0°C ( 46°F) [RH = 87%]
Pressure (altimeter):29.78 inches Hg (1008.5 mb)
Winds:calm
Visibility:10 or more sm (16+ km)
Ceiling:at least 12,000 feet AGL
Clouds:sky clear below 12,000 feet AGL
QC Flag:automated observation with no human augmentation
Text:KEDU 210935Z AUTO 00000KT 10SM CLR 10/08 A2977 RMK AO1
Temperature: 10.0°C ( 50°F)
Dewpoint: 8.0°C ( 46°F) [RH = 87%]
Pressure (altimeter):29.77 inches Hg (1008.2 mb)
Winds:calm
Visibility:10 or more sm (16+ km)
Ceiling:at least 12,000 feet AGL
Clouds:sky clear below 12,000 feet AGL
QC Flag:automated observation with no human augmentation
Text:KEDU 210915Z AUTO 27004KT 10SM FEW110 10/08 A2977 RMK AO1
Temperature: 10.0°C ( 50°F)
Dewpoint: 8.0°C ( 46°F) [RH = 87%]
Pressure (altimeter):29.77 inches Hg (1008.2 mb)
Winds:from the W (270 degrees) at 5 MPH (4 knots; 2.1 m/s)
Visibility:10 or more sm (16+ km)
Ceiling:at least 12,000 feet AGL
Clouds: few clouds at 11000 feet AGL
QC Flag:automated observation with no human augmentation
Text:KEDU 210855Z AUTO 00000KT 10SM FEW110 A2978 RMK AO1
Pressure (altimeter):29.78 inches Hg (1008.5 mb)
Winds:calm
Visibility:10 or more sm (16+ km)
Ceiling:at least 12,000 feet AGL
Clouds: few clouds at 11000 feet AGL
QC Flag:automated observation with no human augmentation
Text:KEDU 210835Z AUTO 00000KT 10SM CLR A2979 RMK AO1
Pressure (altimeter):29.79 inches Hg (1008.9 mb)
Winds:calm
Visibility:10 or more sm (16+ km)
Ceiling:at least 12,000 feet AGL
Clouds:sky clear below 12,000 feet AGL
QC Flag:automated observation with no human augmentation
Text:KEDU 210815Z AUTO 00000KT 10SM CLR 11/08 A2978 RMK AO1
Temperature: 11.0°C ( 52°F)
Dewpoint: 8.0°C ( 46°F) [RH = 82%]
Pressure (altimeter):29.78 inches Hg (1008.5 mb)
Winds:calm
Visibility:10 or more sm (16+ km)
Ceiling:at least 12,000 feet AGL
Clouds:sky clear below 12,000 feet AGL
QC Flag:automated observation with no human augmentation
Text:KEDU 210755Z AUTO 00000KT 10SM CLR 12/08 A2978 RMK AO1
Temperature: 12.0°C ( 54°F)
Dewpoint: 8.0°C ( 46°F) [RH = 76%]
Pressure (altimeter):29.78 inches Hg (1008.5 mb)
Winds:calm
Visibility:10 or more sm (16+ km)
Ceiling:at least 12,000 feet AGL
Clouds:sky clear below 12,000 feet AGL
QC Flag:automated observation with no human augmentation
Text:KEDU 210735Z AUTO 00000KT 10SM CLR A2978 RMK AO1
Pressure (altimeter):29.78 inches Hg (1008.5 mb)
Winds:calm
Visibility:10 or more sm (16+ km)
Ceiling:at least 12,000 feet AGL
Clouds:sky clear below 12,000 feet AGL
QC Flag:automated observation with no human augmentation
Text:KEDU 210715Z AUTO 00000KT 10SM CLR 15/07 A2978 RMK AO1
Temperature: 15.0°C ( 59°F)
Dewpoint: 7.0°C ( 45°F) [RH = 59%]
Pressure (altimeter):29.78 inches Hg (1008.5 mb)
Winds:calm
Visibility:10 or more sm (16+ km)
Ceiling:at least 12,000 feet AGL
Clouds:sky clear below 12,000 feet AGL
QC Flag:automated observation with no human augmentation
Text:KEDU 210655Z AUTO 32003KT 10SM CLR A2977 RMK AO1
Pressure (altimeter):29.77 inches Hg (1008.2 mb)
Winds:from the NW (320 degrees) at 3 MPH (3 knots; 1.5 m/s)
Visibility:10 or more sm (16+ km)
Ceiling:at least 12,000 feet AGL
Clouds:sky clear below 12,000 feet AGL
QC Flag:automated observation with no human augmentation
Text:KEDU 210635Z AUTO 33005KT 10SM CLR 16/07 A2977 RMK AO1
Temperature: 16.0°C ( 61°F)
Dewpoint: 7.0°C ( 45°F) [RH = 55%]
Pressure (altimeter):29.77 inches Hg (1008.2 mb)
Winds:from the NNW (330 degrees) at 6 MPH (5 knots; 2.6 m/s)
Visibility:10 or more sm (16+ km)
Ceiling:at least 12,000 feet AGL
Clouds:sky clear below 12,000 feet AGL
QC Flag:automated observation with no human augmentation
Text:KEDU 210615Z AUTO 30004KT 10SM FEW090 17/08 A2977 RMK AO1
Temperature: 17.0°C ( 63°F)
Dewpoint: 8.0°C ( 46°F) [RH = 55%]
Pressure (altimeter):29.77 inches Hg (1008.2 mb)
Winds:from the WNW (300 degrees) at 5 MPH (4 knots; 2.1 m/s)
Visibility:10 or more sm (16+ km)
Ceiling:at least 12,000 feet AGL
Clouds: few clouds at 9000 feet AGL
QC Flag:automated observation with no human augmentation
Text:KEDU 210555Z AUTO 28004KT 10SM SCT090 17/08 A2977 RMK AO1
Temperature: 17.0°C ( 63°F)
Dewpoint: 8.0°C ( 46°F) [RH = 55%]
Pressure (altimeter):29.77 inches Hg (1008.2 mb)
Winds:from the W (280 degrees) at 5 MPH (4 knots; 2.1 m/s)
Visibility:10 or more sm (16+ km)
Ceiling:at least 12,000 feet AGL
Clouds: scattered clouds at 9000 feet AGL
QC Flag:automated observation with no human augmentation
Text:KEDU 210535Z AUTO 00000KT 10SM BKN090 17/09 A2977 RMK AO1
Temperature: 17.0°C ( 63°F)
Dewpoint: 9.0°C ( 48°F) [RH = 59%]
Pressure (altimeter):29.77 inches Hg (1008.2 mb)
Winds:calm
Visibility:10 or more sm (16+ km)
Ceiling:9000 feet AGL
Clouds: broken clouds at 9000 feet AGL
QC Flag:automated observation with no human augmentation
Text:KEDU 210515Z AUTO 00000KT 10SM SCT090 16/09 A2978 RMK AO1
Temperature: 16.0°C ( 61°F)
Dewpoint: 9.0°C ( 48°F) [RH = 63%]
Pressure (altimeter):29.78 inches Hg (1008.5 mb)
Winds:calm
Visibility:10 or more sm (16+ km)
Ceiling:at least 12,000 feet AGL
Clouds: scattered clouds at 9000 feet AGL
QC Flag:automated observation with no human augmentation
Text:KEDU 210455Z AUTO 00000KT 10SM CLR 15/09 A2978 RMK AO1
Temperature: 15.0°C ( 59°F)
Dewpoint: 9.0°C ( 48°F) [RH = 67%]
Pressure (altimeter):29.78 inches Hg (1008.5 mb)
Winds:calm
Visibility:10 or more sm (16+ km)
Ceiling:at least 12,000 feet AGL
Clouds:sky clear below 12,000 feet AGL
QC Flag:automated observation with no human augmentation
Text:KEDU 210435Z AUTO 00000KT 10SM FEW110 17/09 A2977 RMK AO1
Temperature: 17.0°C ( 63°F)
Dewpoint: 9.0°C ( 48°F) [RH = 59%]
Pressure (altimeter):29.77 inches Hg (1008.2 mb)
Winds:calm
Visibility:10 or more sm (16+ km)
Ceiling:at least 12,000 feet AGL
Clouds: few clouds at 11000 feet AGL
QC Flag:automated observation with no human augmentation
Text:KEDU 210415Z AUTO 00000KT 10SM SCT100 17/09 A2977 RMK AO1
Temperature: 17.0°C ( 63°F)
Dewpoint: 9.0°C ( 48°F) [RH = 59%]
Pressure (altimeter):29.77 inches Hg (1008.2 mb)
Winds:calm
Visibility:10 or more sm (16+ km)
Ceiling:at least 12,000 feet AGL
Clouds: scattered clouds at 10000 feet AGL
QC Flag:automated observation with no human augmentation
Text:KEDU 210355Z AUTO 17003KT 10SM BKN090 17/08 A2976 RMK AO1
Temperature: 17.0°C ( 63°F)
Dewpoint: 8.0°C ( 46°F) [RH = 55%]
Pressure (altimeter):29.76 inches Hg (1007.9 mb)
Winds:from the S (170 degrees) at 3 MPH (3 knots; 1.5 m/s)
Visibility:10 or more sm (16+ km)
Ceiling:9000 feet AGL
Clouds: broken clouds at 9000 feet AGL
QC Flag:automated observation with no human augmentation
Text:KEDU 210335Z AUTO 00000KT 10SM BKN090 18/08 A2975 RMK AO1
Temperature: 18.0°C ( 64°F)
Dewpoint: 8.0°C ( 46°F) [RH = 52%]
Pressure (altimeter):29.75 inches Hg (1007.5 mb)
Winds:calm
Visibility:10 or more sm (16+ km)
Ceiling:9000 feet AGL
Clouds: broken clouds at 9000 feet AGL
QC Flag:automated observation with no human augmentation
Text:KEDU 210315Z AUTO 32007KT 10SM FEW050 SCT090 A2975 RMK AO1
Pressure (altimeter):29.75 inches Hg (1007.5 mb)
Winds:from the NW (320 degrees) at 8 MPH (7 knots; 3.6 m/s)
Visibility:10 or more sm (16+ km)
Ceiling:at least 12,000 feet AGL
Clouds: few clouds at 5000 feet AGL, scattered clouds at 9000 feet AGL
QC Flag:automated observation with no human augmentation
Text:KEDU 210255Z AUTO 32004KT 10SM FEW048 SCT050 BKN075 18/09 A2975 RMK AO1
Temperature: 18.0°C ( 64°F)
Dewpoint: 9.0°C ( 48°F) [RH = 56%]
Pressure (altimeter):29.75 inches Hg (1007.5 mb)
Winds:from the NW (320 degrees) at 5 MPH (4 knots; 2.1 m/s)
Visibility:10 or more sm (16+ km)
Ceiling:7500 feet AGL
Clouds: few clouds at 4800 feet AGL, scattered clouds at 5000 feet AGL, broken clouds at 7500 feet AGL
QC Flag:automated observation with no human augmentation
Text:KEDU 210235Z AUTO 30006G14KT 10SM BKN075 17/09 A2976 RMK AO1
Temperature: 17.0°C ( 63°F)
Dewpoint: 9.0°C ( 48°F) [RH = 59%]
Pressure (altimeter):29.76 inches Hg (1007.9 mb)
Winds:from the WNW (300 degrees) at 7 MPH (6 knots; 3.1 m/s) gusting to 16 MPH (14 knots; 7.2 m/s)
Visibility:10 or more sm (16+ km)
Ceiling:7500 feet AGL
Clouds: broken clouds at 7500 feet AGL
QC Flag:automated observation with no human augmentation
Text:KEDU 210215Z AUTO 30011G19KT 10SM FEW065 BKN085 BKN100 19/08 A2976 RMK AO1
Temperature: 19.0°C ( 66°F)
Dewpoint: 8.0°C ( 46°F) [RH = 49%]
Pressure (altimeter):29.76 inches Hg (1007.9 mb)
Winds:from the WNW (300 degrees) at 13 MPH (11 knots; 5.7 m/s) gusting to 22 MPH (19 knots; 9.8 m/s)
Visibility:10 or more sm (16+ km)
Ceiling:8500 feet AGL
Clouds: few clouds at 6500 feet AGL, broken clouds at 8500 feet AGL, broken clouds at 10000 feet AGL
QC Flag:automated observation with no human augmentation
Text:KEDU 210155Z AUTO 30007KT 270V340 10SM FEW065 BKN085 OVC110 20/07 A2976 RMK AO1
Temperature: 20.0°C ( 68°F)
Dewpoint: 7.0°C ( 45°F) [RH = 43%]
Pressure (altimeter):29.76 inches Hg (1007.9 mb)
Winds:from the WNW (300 degrees) at 8 MPH (7 knots; 3.6 m/s)
Visibility:10 or more sm (16+ km)
Ceiling:8500 feet AGL
Clouds: few clouds at 6500 feet AGL, broken clouds at 8500 feet AGL, overcast cloud deck at 11000 feet AGL
QC Flag:automated observation with no human augmentation
Text:KEDU 210135Z AUTO 21010KT 10SM BKN110 19/08 A2975 RMK AO1
Temperature: 19.0°C ( 66°F)
Dewpoint: 8.0°C ( 46°F) [RH = 49%]
Pressure (altimeter):29.75 inches Hg (1007.5 mb)
Winds:from the SSW (210 degrees) at 12 MPH (10 knots; 5.1 m/s)
Visibility:10 or more sm (16+ km)
Ceiling:11000 feet AGL
Clouds: broken clouds at 11000 feet AGL
QC Flag:automated observation with no human augmentation
Text:KEDU 210115Z AUTO 21011KT 10SM CLR 19/08 A2975 RMK AO1
Temperature: 19.0°C ( 66°F)
Dewpoint: 8.0°C ( 46°F) [RH = 49%]
Pressure (altimeter):29.75 inches Hg (1007.5 mb)
Winds:from the SSW (210 degrees) at 13 MPH (11 knots; 5.7 m/s)
Visibility:10 or more sm (16+ km)
Ceiling:at least 12,000 feet AGL
Clouds:sky clear below 12,000 feet AGL
QC Flag:automated observation with no human augmentation
Text:KEDU 210055Z AUTO 20011G19KT 10SM CLR 20/08 A2974 RMK AO1
Temperature: 20.0°C ( 68°F)
Dewpoint: 8.0°C ( 46°F) [RH = 46%]
Pressure (altimeter):29.74 inches Hg (1007.2 mb)
Winds:from the SSW (200 degrees) at 13 MPH (11 knots; 5.7 m/s) gusting to 22 MPH (19 knots; 9.8 m/s)
Visibility:10 or more sm (16+ km)
Ceiling:at least 12,000 feet AGL
Clouds:sky clear below 12,000 feet AGL
QC Flag:automated observation with no human augmentation
Text:KEDU 210035Z AUTO 21014G20KT 10SM CLR 22/08 A2975 RMK AO1
Temperature: 22.0°C ( 72°F)
Dewpoint: 8.0°C ( 46°F) [RH = 41%]
Pressure (altimeter):29.75 inches Hg (1007.5 mb)
Winds:from the SSW (210 degrees) at 16 MPH (14 knots; 7.2 m/s) gusting to 23 MPH (20 knots; 10.3 m/s)
Visibility:10 or more sm (16+ km)
Ceiling:at least 12,000 feet AGL
Clouds:sky clear below 12,000 feet AGL
QC Flag:automated observation with no human augmentation
Text:KEDU 210015Z AUTO 20013G19KT 10SM CLR 22/08 A2975 RMK AO1
Temperature: 22.0°C ( 72°F)
Dewpoint: 8.0°C ( 46°F) [RH = 41%]
Pressure (altimeter):29.75 inches Hg (1007.5 mb)
Winds:from the SSW (200 degrees) at 15 MPH (13 knots; 6.7 m/s) gusting to 22 MPH (19 knots; 9.8 m/s)
Visibility:10 or more sm (16+ km)
Ceiling:at least 12,000 feet AGL
Clouds:sky clear below 12,000 feet AGL
QC Flag:automated observation with no human augmentation
Text:KEDU 202355Z AUTO 20014G18KT 10SM CLR 22/08 A2975 RMK AO1
Temperature: 22.0°C ( 72°F)
Dewpoint: 8.0°C ( 46°F) [RH = 41%]
Pressure (altimeter):29.75 inches Hg (1007.5 mb)
Winds:from the SSW (200 degrees) at 16 MPH (14 knots; 7.2 m/s) gusting to 21 MPH (18 knots; 9.3 m/s)
Visibility:10 or more sm (16+ km)
Ceiling:at least 12,000 feet AGL
Clouds:sky clear below 12,000 feet AGL
QC Flag:automated observation with no human augmentation
Text:KEDU 202335Z AUTO 21014G21KT 10SM CLR 23/08 A2975 RMK AO1
Temperature: 23.0°C ( 73°F)
Dewpoint: 8.0°C ( 46°F) [RH = 38%]
Pressure (altimeter):29.75 inches Hg (1007.5 mb)
Winds:from the SSW (210 degrees) at 16 MPH (14 knots; 7.2 m/s) gusting to 24 MPH (21 knots; 10.8 m/s)
Visibility:10 or more sm (16+ km)
Ceiling:at least 12,000 feet AGL
Clouds:sky clear below 12,000 feet AGL
QC Flag:automated observation with no human augmentation
Text:KEDU 202315Z AUTO 21013KT 10SM CLR 23/08 A2975 RMK AO1
Temperature: 23.0°C ( 73°F)
Dewpoint: 8.0°C ( 46°F) [RH = 38%]
Pressure (altimeter):29.75 inches Hg (1007.5 mb)
Winds:from the SSW (210 degrees) at 15 MPH (13 knots; 6.7 m/s)
Visibility:10 or more sm (16+ km)
Ceiling:at least 12,000 feet AGL
Clouds:sky clear below 12,000 feet AGL
QC Flag:automated observation with no human augmentation
Text:KEDU 202255Z AUTO 20014G18KT 10SM CLR 23/08 A2976 RMK AO1
Temperature: 23.0°C ( 73°F)
Dewpoint: 8.0°C ( 46°F) [RH = 38%]
Pressure (altimeter):29.76 inches Hg (1007.9 mb)
Winds:from the SSW (200 degrees) at 16 MPH (14 knots; 7.2 m/s) gusting to 21 MPH (18 knots; 9.3 m/s)
Visibility:10 or more sm (16+ km)
Ceiling:at least 12,000 feet AGL
Clouds:sky clear below 12,000 feet AGL
QC Flag:automated observation with no human augmentation
Text:KEDU 202235Z AUTO 19014G17KT 10SM CLR 23/08 A2977 RMK AO1
Temperature: 23.0°C ( 73°F)
Dewpoint: 8.0°C ( 46°F) [RH = 38%]
Pressure (altimeter):29.77 inches Hg (1008.2 mb)
Winds:from the S (190 degrees) at 16 MPH (14 knots; 7.2 m/s) gusting to 20 MPH (17 knots; 8.7 m/s)
Visibility:10 or more sm (16+ km)
Ceiling:at least 12,000 feet AGL
Clouds:sky clear below 12,000 feet AGL
QC Flag:automated observation with no human augmentation
Text:KEDU 202215Z AUTO 20013G18KT 10SM CLR 24/08 A2978 RMK AO1
Temperature: 24.0°C ( 75°F)
Dewpoint: 8.0°C ( 46°F) [RH = 36%]
Pressure (altimeter):29.78 inches Hg (1008.5 mb)
Winds:from the SSW (200 degrees) at 15 MPH (13 knots; 6.7 m/s) gusting to 21 MPH (18 knots; 9.3 m/s)
Visibility:10 or more sm (16+ km)
Ceiling:at least 12,000 feet AGL
Clouds:sky clear below 12,000 feet AGL
QC Flag:automated observation with no human augmentation
Text:KEDU 202155Z AUTO 20011KT 10SM CLR 24/07 A2978 RMK AO1
Temperature: 24.0°C ( 75°F)
Dewpoint: 7.0°C ( 45°F) [RH = 34%]
Pressure (altimeter):29.78 inches Hg (1008.5 mb)
Winds:from the SSW (200 degrees) at 13 MPH (11 knots; 5.7 m/s)
Visibility:10 or more sm (16+ km)
Ceiling:at least 12,000 feet AGL
Clouds:sky clear below 12,000 feet AGL
QC Flag:automated observation with no human augmentation
Text:KEDU 202135Z AUTO 19011G16KT 10SM CLR 24/07 A2979 RMK AO1
Temperature: 24.0°C ( 75°F)
Dewpoint: 7.0°C ( 45°F) [RH = 34%]
Pressure (altimeter):29.79 inches Hg (1008.9 mb)
Winds:from the S (190 degrees) at 13 MPH (11 knots; 5.7 m/s) gusting to 18 MPH (16 knots; 8.2 m/s)
Visibility:10 or more sm (16+ km)
Ceiling:at least 12,000 feet AGL
Clouds:sky clear below 12,000 feet AGL
QC Flag:automated observation with no human augmentation
Text:KEDU 202115Z AUTO 21011KT 10SM CLR 24/07 A2979 RMK AO1
Temperature: 24.0°C ( 75°F)
Dewpoint: 7.0°C ( 45°F) [RH = 34%]
Pressure (altimeter):29.79 inches Hg (1008.9 mb)
Winds:from the SSW (210 degrees) at 13 MPH (11 knots; 5.7 m/s)
Visibility:10 or more sm (16+ km)
Ceiling:at least 12,000 feet AGL
Clouds:sky clear below 12,000 feet AGL
QC Flag:automated observation with no human augmentation
Text:KEDU 202055Z AUTO 20011G17KT 180V240 10SM CLR 24/07 A2980 RMK AO1
Temperature: 24.0°C ( 75°F)
Dewpoint: 7.0°C ( 45°F) [RH = 34%]
Pressure (altimeter):29.80 inches Hg (1009.2 mb)
Winds:from the SSW (200 degrees) at 13 MPH (11 knots; 5.7 m/s) gusting to 20 MPH (17 knots; 8.7 m/s)
Visibility:10 or more sm (16+ km)
Ceiling:at least 12,000 feet AGL
Clouds:sky clear below 12,000 feet AGL
QC Flag:automated observation with no human augmentation
Text:KEDU 202035Z AUTO 21010G15KT 10SM CLR 24/07 A2981 RMK AO1
Temperature: 24.0°C ( 75°F)
Dewpoint: 7.0°C ( 45°F) [RH = 34%]
Pressure (altimeter):29.81 inches Hg (1009.6 mb)
Winds:from the SSW (210 degrees) at 12 MPH (10 knots; 5.1 m/s) gusting to 17 MPH (15 knots; 7.7 m/s)
Visibility:10 or more sm (16+ km)
Ceiling:at least 12,000 feet AGL
Clouds:sky clear below 12,000 feet AGL
QC Flag:automated observation with no human augmentation
Text:KEDU 202015Z AUTO 19012G15KT 180V250 10SM CLR 24/07 A2981 RMK AO1
Temperature: 24.0°C ( 75°F)
Dewpoint: 7.0°C ( 45°F) [RH = 34%]
Pressure (altimeter):29.81 inches Hg (1009.6 mb)
Winds:from the S (190 degrees) at 14 MPH (12 knots; 6.2 m/s) gusting to 17 MPH (15 knots; 7.7 m/s)
Visibility:10 or more sm (16+ km)
Ceiling:at least 12,000 feet AGL
Clouds:sky clear below 12,000 feet AGL
QC Flag:automated observation with no human augmentation
Text:KEDU 201955Z AUTO 20005KT 10SM CLR 23/05 A2982 RMK AO1
Temperature: 23.0°C ( 73°F)
Dewpoint: 5.0°C ( 41°F) [RH = 31%]
Pressure (altimeter):29.82 inches Hg (1009.9 mb)
Winds:from the SSW (200 degrees) at 6 MPH (5 knots; 2.6 m/s)
Visibility:10 or more sm (16+ km)
Ceiling:at least 12,000 feet AGL
Clouds:sky clear below 12,000 feet AGL
QC Flag:automated observation with no human augmentation
Text:KEDU 201935Z AUTO 21006KT 10SM CLR A2983 RMK AO1
Pressure (altimeter):29.83 inches Hg (1010.2 mb)
Winds:from the SSW (210 degrees) at 7 MPH (6 knots; 3.1 m/s)
Visibility:10 or more sm (16+ km)
Ceiling:at least 12,000 feet AGL
Clouds:sky clear below 12,000 feet AGL
QC Flag:automated observation with no human augmentation
Text:KEDU 201915Z AUTO 25004KT 10SM CLR 22/05 A2985 RMK AO1
Temperature: 22.0°C ( 72°F)
Dewpoint: 5.0°C ( 41°F) [RH = 33%]
Pressure (altimeter):29.85 inches Hg (1010.9 mb)
Winds:from the WSW (250 degrees) at 5 MPH (4 knots; 2.1 m/s)
Visibility:10 or more sm (16+ km)
Ceiling:at least 12,000 feet AGL
Clouds:sky clear below 12,000 feet AGL
QC Flag:automated observation with no human augmentation
Text:KEDU 201855Z AUTO 00000KT 10SM CLR 20/06 A2986 RMK AO1
Temperature: 20.0°C ( 68°F)
Dewpoint: 6.0°C ( 43°F) [RH = 40%]
Pressure (altimeter):29.86 inches Hg (1011.3 mb)
Winds:calm
Visibility:10 or more sm (16+ km)
Ceiling:at least 12,000 feet AGL
Clouds:sky clear below 12,000 feet AGL
QC Flag:automated observation with no human augmentation
Text:KEDU 201835Z AUTO 20004KT 10SM CLR 20/06 A2987 RMK AO1
Temperature: 20.0°C ( 68°F)
Dewpoint: 6.0°C ( 43°F) [RH = 40%]
Pressure (altimeter):29.87 inches Hg (1011.6 mb)
Winds:from the SSW (200 degrees) at 5 MPH (4 knots; 2.1 m/s)
Visibility:10 or more sm (16+ km)
Ceiling:at least 12,000 feet AGL
Clouds:sky clear below 12,000 feet AGL
QC Flag:automated observation with no human augmentation
Text:KEDU 201815Z AUTO 20005KT 10SM CLR 19/06 A2988 RMK AO1
Temperature: 19.0°C ( 66°F)
Dewpoint: 6.0°C ( 43°F) [RH = 43%]
Pressure (altimeter):29.88 inches Hg (1011.9 mb)
Winds:from the SSW (200 degrees) at 6 MPH (5 knots; 2.6 m/s)
Visibility:10 or more sm (16+ km)
Ceiling:at least 12,000 feet AGL
Clouds:sky clear below 12,000 feet AGL
QC Flag:automated observation with no human augmentation
Text:KEDU 201755Z AUTO 00000KT 10SM CLR 18/07 A2989 RMK AO1
Temperature: 18.0°C ( 64°F)
Dewpoint: 7.0°C ( 45°F) [RH = 49%]
Pressure (altimeter):29.89 inches Hg (1012.3 mb)
Winds:calm
Visibility:10 or more sm (16+ km)
Ceiling:at least 12,000 feet AGL
Clouds:sky clear below 12,000 feet AGL
QC Flag:automated observation with no human augmentation
Text:KEDU 201735Z AUTO 00000KT 10SM CLR 17/07 A2989 RMK AO1
Temperature: 17.0°C ( 63°F)
Dewpoint: 7.0°C ( 45°F) [RH = 52%]
Pressure (altimeter):29.89 inches Hg (1012.3 mb)
Winds:calm
Visibility:10 or more sm (16+ km)
Ceiling:at least 12,000 feet AGL
Clouds:sky clear below 12,000 feet AGL
QC Flag:automated observation with no human augmentation
Text:KEDU 201715Z AUTO 00000KT 10SM CLR A2989 RMK AO1
Pressure (altimeter):29.89 inches Hg (1012.3 mb)
Winds:calm
Visibility:10 or more sm (16+ km)
Ceiling:at least 12,000 feet AGL
Clouds:sky clear below 12,000 feet AGL
QC Flag:automated observation with no human augmentation
Text:KEDU 201655Z AUTO 00000KT 10SM CLR 15/07 A2990 RMK AO1
Temperature: 15.0°C ( 59°F)
Dewpoint: 7.0°C ( 45°F) [RH = 59%]
Pressure (altimeter):29.90 inches Hg (1012.6 mb)
Winds:calm
Visibility:10 or more sm (16+ km)
Ceiling:at least 12,000 feet AGL
Clouds:sky clear below 12,000 feet AGL
QC Flag:automated observation with no human augmentation
Text:KEDU 201635Z AUTO 00000KT 10SM CLR 15/07 A2990 RMK AO1
Temperature: 15.0°C ( 59°F)
Dewpoint: 7.0°C ( 45°F) [RH = 59%]
Pressure (altimeter):29.90 inches Hg (1012.6 mb)
Winds:calm
Visibility:10 or more sm (16+ km)
Ceiling:at least 12,000 feet AGL
Clouds:sky clear below 12,000 feet AGL
QC Flag:automated observation with no human augmentation
Text:KEDU 201615Z AUTO 33003KT 10SM CLR 14/07 A2990 RMK AO1
Temperature: 14.0°C ( 57°F)
Dewpoint: 7.0°C ( 45°F) [RH = 63%]
Pressure (altimeter):29.90 inches Hg (1012.6 mb)
Winds:from the NNW (330 degrees) at 3 MPH (3 knots; 1.5 m/s)
Visibility:10 or more sm (16+ km)
Ceiling:at least 12,000 feet AGL
Clouds:sky clear below 12,000 feet AGL
QC Flag:automated observation with no human augmentation
Text:KEDU 201555Z AUTO 28003KT 9SM CLR 13/07 A2990 RMK AO1
Temperature: 13.0°C ( 55°F)
Dewpoint: 7.0°C ( 45°F) [RH = 67%]
Pressure (altimeter):29.90 inches Hg (1012.6 mb)
Winds:from the W (280 degrees) at 3 MPH (3 knots; 1.5 m/s)
Visibility: 9 sm ( 14 km)
Ceiling:at least 12,000 feet AGL
Clouds:sky clear below 12,000 feet AGL
QC Flag:automated observation with no human augmentation
Text:KEDU 201535Z AUTO 28003KT 10SM CLR 13/07 A2990 RMK AO1
Temperature: 13.0°C ( 55°F)
Dewpoint: 7.0°C ( 45°F) [RH = 67%]
Pressure (altimeter):29.90 inches Hg (1012.6 mb)
Winds:from the W (280 degrees) at 3 MPH (3 knots; 1.5 m/s)
Visibility:10 or more sm (16+ km)
Ceiling:at least 12,000 feet AGL
Clouds:sky clear below 12,000 feet AGL
QC Flag:automated observation with no human augmentation
Text:KEDU 201515Z AUTO 00000KT 10SM CLR 12/07 A2990 RMK AO1
Temperature: 12.0°C ( 54°F)
Dewpoint: 7.0°C ( 45°F) [RH = 71%]
Pressure (altimeter):29.90 inches Hg (1012.6 mb)
Winds:calm
Visibility:10 or more sm (16+ km)
Ceiling:at least 12,000 feet AGL
Clouds:sky clear below 12,000 feet AGL
QC Flag:automated observation with no human augmentation
Text:KEDU 201455Z AUTO 27003KT 10SM CLR 11/07 A2990 RMK AO1
Temperature: 11.0°C ( 52°F)
Dewpoint: 7.0°C ( 45°F) [RH = 76%]
Pressure (altimeter):29.90 inches Hg (1012.6 mb)
Winds:from the W (270 degrees) at 3 MPH (3 knots; 1.5 m/s)
Visibility:10 or more sm (16+ km)
Ceiling:at least 12,000 feet AGL
Clouds:sky clear below 12,000 feet AGL
QC Flag:automated observation with no human augmentation
Text:KEDU 201435Z AUTO 28005KT 10SM CLR 10/07 A2990 RMK AO1
Temperature: 10.0°C ( 50°F)
Dewpoint: 7.0°C ( 45°F) [RH = 82%]
Pressure (altimeter):29.90 inches Hg (1012.6 mb)
Winds:from the W (280 degrees) at 6 MPH (5 knots; 2.6 m/s)
Visibility:10 or more sm (16+ km)
Ceiling:at least 12,000 feet AGL
Clouds:sky clear below 12,000 feet AGL
QC Flag:automated observation with no human augmentation
Text:KEDU 201415Z AUTO 00000KT 10SM CLR 09/07 A2989 RMK AO1
Temperature: 9.0°C ( 48°F)
Dewpoint: 7.0°C ( 45°F) [RH = 87%]
Pressure (altimeter):29.89 inches Hg (1012.3 mb)
Winds:calm
Visibility:10 or more sm (16+ km)
Ceiling:at least 12,000 feet AGL
Clouds:sky clear below 12,000 feet AGL
QC Flag:automated observation with no human augmentation
Text:KEDU 201355Z AUTO 24003KT 10SM CLR 08/05 A2989 RMK AO1
Temperature: 8.0°C ( 46°F)
Dewpoint: 5.0°C ( 41°F) [RH = 81%]
Pressure (altimeter):29.89 inches Hg (1012.3 mb)
Winds:from the WSW (240 degrees) at 3 MPH (3 knots; 1.5 m/s)
Visibility:10 or more sm (16+ km)
Ceiling:at least 12,000 feet AGL
Clouds:sky clear below 12,000 feet AGL
QC Flag:automated observation with no human augmentation
Text:KEDU 201335Z AUTO 00000KT 10SM CLR 07/05 A2989 RMK AO1
Temperature: 7.0°C ( 45°F)
Dewpoint: 5.0°C ( 41°F) [RH = 87%]
Pressure (altimeter):29.89 inches Hg (1012.3 mb)
Winds:calm
Visibility:10 or more sm (16+ km)
Ceiling:at least 12,000 feet AGL
Clouds:sky clear below 12,000 feet AGL
QC Flag:automated observation with no human augmentation
Text:KEDU 201315Z AUTO 00000KT 10SM CLR 07/04 A2989 RMK AO1
Temperature: 7.0°C ( 45°F)
Dewpoint: 4.0°C ( 39°F) [RH = 81%]
Pressure (altimeter):29.89 inches Hg (1012.3 mb)
Winds:calm
Visibility:10 or more sm (16+ km)
Ceiling:at least 12,000 feet AGL
Clouds:sky clear below 12,000 feet AGL
QC Flag:automated observation with no human augmentation
Text:KEDU 201255Z AUTO 00000KT 10SM CLR 08/05 A2988 RMK AO1
Temperature: 8.0°C ( 46°F)
Dewpoint: 5.0°C ( 41°F) [RH = 81%]
Pressure (altimeter):29.88 inches Hg (1011.9 mb)
Winds:calm
Visibility:10 or more sm (16+ km)
Ceiling:at least 12,000 feet AGL
Clouds:sky clear below 12,000 feet AGL
QC Flag:automated observation with no human augmentation
Text:KEDU 201235Z AUTO 00000KT 10SM CLR 09/05 A2988 RMK AO1
Temperature: 9.0°C ( 48°F)
Dewpoint: 5.0°C ( 41°F) [RH = 76%]
Pressure (altimeter):29.88 inches Hg (1011.9 mb)
Winds:calm
Visibility:10 or more sm (16+ km)
Ceiling:at least 12,000 feet AGL
Clouds:sky clear below 12,000 feet AGL
QC Flag:automated observation with no human augmentation
Text:KEDU 201215Z AUTO 00000KT 10SM CLR A2987 RMK AO1
Pressure (altimeter):29.87 inches Hg (1011.6 mb)
Winds:calm
Visibility:10 or more sm (16+ km)
Ceiling:at least 12,000 feet AGL
Clouds:sky clear below 12,000 feet AGL
QC Flag:automated observation with no human augmentation
Text:KEDU 201155Z AUTO 00000KT 10SM CLR 10/05 A2988 RMK AO1
Temperature: 10.0°C ( 50°F)
Dewpoint: 5.0°C ( 41°F) [RH = 71%]
Pressure (altimeter):29.88 inches Hg (1011.9 mb)
Winds:calm
Visibility:10 or more sm (16+ km)
Ceiling:at least 12,000 feet AGL
Clouds:sky clear below 12,000 feet AGL
QC Flag:automated observation with no human augmentation
Text:KEDU 201135Z AUTO 00000KT 10SM CLR A2987 RMK AO1
Pressure (altimeter):29.87 inches Hg (1011.6 mb)
Winds:calm
Visibility:10 or more sm (16+ km)
Ceiling:at least 12,000 feet AGL
Clouds:sky clear below 12,000 feet AGL
QC Flag:automated observation with no human augmentation
Text:KEDU 201115Z AUTO 00000KT 10SM CLR A2988 RMK AO1
Pressure (altimeter):29.88 inches Hg (1011.9 mb)
Winds:calm
Visibility:10 or more sm (16+ km)
Ceiling:at least 12,000 feet AGL
Clouds:sky clear below 12,000 feet AGL
QC Flag:automated observation with no human augmentation
Text:KEDU 201055Z AUTO 00000KT 10SM CLR 10/06 A2988 RMK AO1
Temperature: 10.0°C ( 50°F)
Dewpoint: 6.0°C ( 43°F) [RH = 76%]
Pressure (altimeter):29.88 inches Hg (1011.9 mb)
Winds:calm
Visibility:10 or more sm (16+ km)
Ceiling:at least 12,000 feet AGL
Clouds:sky clear below 12,000 feet AGL
QC Flag:automated observation with no human augmentation
Text:KEDU 201035Z AUTO 00000KT 10SM CLR 10/05 A2988 RMK AO1
Temperature: 10.0°C ( 50°F)
Dewpoint: 5.0°C ( 41°F) [RH = 71%]
Pressure (altimeter):29.88 inches Hg (1011.9 mb)
Winds:calm
Visibility:10 or more sm (16+ km)
Ceiling:at least 12,000 feet AGL
Clouds:sky clear below 12,000 feet AGL
QC Flag:automated observation with no human augmentation
Text:KEDU 201015Z AUTO 00000KT 10SM CLR A2987 RMK AO1
Pressure (altimeter):29.87 inches Hg (1011.6 mb)
Winds:calm
Visibility:10 or more sm (16+ km)
Ceiling:at least 12,000 feet AGL
Clouds:sky clear below 12,000 feet AGL
QC Flag:automated observation with no human augmentation
Text:KEDU 200955Z AUTO 16003KT 10SM CLR 10/05 A2987 RMK AO1
Temperature: 10.0°C ( 50°F)
Dewpoint: 5.0°C ( 41°F) [RH = 71%]
Pressure (altimeter):29.87 inches Hg (1011.6 mb)
Winds:from the SSE (160 degrees) at 3 MPH (3 knots; 1.5 m/s)
Visibility:10 or more sm (16+ km)
Ceiling:at least 12,000 feet AGL
Clouds:sky clear below 12,000 feet AGL
QC Flag:automated observation with no human augmentation
Text:KEDU 200935Z AUTO 00000KT 10SM CLR A2987 RMK AO1
Pressure (altimeter):29.87 inches Hg (1011.6 mb)
Winds:calm
Visibility:10 or more sm (16+ km)
Ceiling:at least 12,000 feet AGL
Clouds:sky clear below 12,000 feet AGL
QC Flag:automated observation with no human augmentation
Text:KEDU 200915Z AUTO 19004KT 10SM CLR 12/06 A2988 RMK AO1
Temperature: 12.0°C ( 54°F)
Dewpoint: 6.0°C ( 43°F) [RH = 67%]
Pressure (altimeter):29.88 inches Hg (1011.9 mb)
Winds:from the S (190 degrees) at 5 MPH (4 knots; 2.1 m/s)
Visibility:10 or more sm (16+ km)
Ceiling:at least 12,000 feet AGL
Clouds:sky clear below 12,000 feet AGL
QC Flag:automated observation with no human augmentation
Text:KEDU 200855Z AUTO 20004KT 10SM CLR 12/06 A2989 RMK AO1
Temperature: 12.0°C ( 54°F)
Dewpoint: 6.0°C ( 43°F) [RH = 67%]
Pressure (altimeter):29.89 inches Hg (1012.3 mb)
Winds:from the SSW (200 degrees) at 5 MPH (4 knots; 2.1 m/s)
Visibility:10 or more sm (16+ km)
Ceiling:at least 12,000 feet AGL
Clouds:sky clear below 12,000 feet AGL
QC Flag:automated observation with no human augmentation
Text:KEDU 200835Z AUTO 19005KT 10SM CLR 12/07 A2990 RMK AO1
Temperature: 12.0°C ( 54°F)
Dewpoint: 7.0°C ( 45°F) [RH = 71%]
Pressure (altimeter):29.90 inches Hg (1012.6 mb)
Winds:from the S (190 degrees) at 6 MPH (5 knots; 2.6 m/s)
Visibility:10 or more sm (16+ km)
Ceiling:at least 12,000 feet AGL
Clouds:sky clear below 12,000 feet AGL
QC Flag:automated observation with no human augmentation
Text:KEDU 200815Z AUTO 00000KT 10SM CLR A2990 RMK AO1
Pressure (altimeter):29.90 inches Hg (1012.6 mb)
Winds:calm
Visibility:10 or more sm (16+ km)
Ceiling:at least 12,000 feet AGL
Clouds:sky clear below 12,000 feet AGL
QC Flag:automated observation with no human augmentation
Text:KEDU 200755Z AUTO 00000KT 10SM CLR 12/06 A2990 RMK AO1
Temperature: 12.0°C ( 54°F)
Dewpoint: 6.0°C ( 43°F) [RH = 67%]
Pressure (altimeter):29.90 inches Hg (1012.6 mb)
Winds:calm
Visibility:10 or more sm (16+ km)
Ceiling:at least 12,000 feet AGL
Clouds:sky clear below 12,000 feet AGL
QC Flag:automated observation with no human augmentation
Text:KEDU 200735Z AUTO 16004KT 10SM CLR 13/06 A2991 RMK AO1
Temperature: 13.0°C ( 55°F)
Dewpoint: 6.0°C ( 43°F) [RH = 62%]
Pressure (altimeter):29.91 inches Hg (1013.0 mb)
Winds:from the SSE (160 degrees) at 5 MPH (4 knots; 2.1 m/s)
Visibility:10 or more sm (16+ km)
Ceiling:at least 12,000 feet AGL
Clouds:sky clear below 12,000 feet AGL
QC Flag:automated observation with no human augmentation
Text:KEDU 200715Z AUTO 17003KT 10SM CLR 12/07 A2991 RMK AO1
Temperature: 12.0°C ( 54°F)
Dewpoint: 7.0°C ( 45°F) [RH = 71%]
Pressure (altimeter):29.91 inches Hg (1013.0 mb)
Winds:from the S (170 degrees) at 3 MPH (3 knots; 1.5 m/s)
Visibility:10 or more sm (16+ km)
Ceiling:at least 12,000 feet AGL
Clouds:sky clear below 12,000 feet AGL
QC Flag:automated observation with no human augmentation
Text:KEDU 200655Z AUTO 18006KT 10SM CLR 13/07 A2991 RMK AO1
Temperature: 13.0°C ( 55°F)
Dewpoint: 7.0°C ( 45°F) [RH = 67%]
Pressure (altimeter):29.91 inches Hg (1013.0 mb)
Winds:from the S (180 degrees) at 7 MPH (6 knots; 3.1 m/s)
Visibility:10 or more sm (16+ km)
Ceiling:at least 12,000 feet AGL
Clouds:sky clear below 12,000 feet AGL
QC Flag:automated observation with no human augmentation
Text:KEDU 200635Z AUTO 00000KT 10SM CLR 13/07 A2991 RMK AO1
Temperature: 13.0°C ( 55°F)
Dewpoint: 7.0°C ( 45°F) [RH = 67%]
Pressure (altimeter):29.91 inches Hg (1013.0 mb)
Winds:calm
Visibility:10 or more sm (16+ km)
Ceiling:at least 12,000 feet AGL
Clouds:sky clear below 12,000 feet AGL
QC Flag:automated observation with no human augmentation
Text:KEDU 200615Z AUTO 17003KT 10SM CLR 13/07 A2991 RMK AO1
Temperature: 13.0°C ( 55°F)
Dewpoint: 7.0°C ( 45°F) [RH = 67%]
Pressure (altimeter):29.91 inches Hg (1013.0 mb)
Winds:from the S (170 degrees) at 3 MPH (3 knots; 1.5 m/s)
Visibility:10 or more sm (16+ km)
Ceiling:at least 12,000 feet AGL
Clouds:sky clear below 12,000 feet AGL
QC Flag:automated observation with no human augmentation
Text:KEDU 200555Z AUTO 17003KT 10SM CLR 14/07 A2991 RMK AO1
Temperature: 14.0°C ( 57°F)
Dewpoint: 7.0°C ( 45°F) [RH = 63%]
Pressure (altimeter):29.91 inches Hg (1013.0 mb)
Winds:from the S (170 degrees) at 3 MPH (3 knots; 1.5 m/s)
Visibility:10 or more sm (16+ km)
Ceiling:at least 12,000 feet AGL
Clouds:sky clear below 12,000 feet AGL
QC Flag:automated observation with no human augmentation
Text:KEDU 200535Z AUTO 20005KT 10SM CLR 15/07 A2991 RMK AO1
Temperature: 15.0°C ( 59°F)
Dewpoint: 7.0°C ( 45°F) [RH = 59%]
Pressure (altimeter):29.91 inches Hg (1013.0 mb)
Winds:from the SSW (200 degrees) at 6 MPH (5 knots; 2.6 m/s)
Visibility:10 or more sm (16+ km)
Ceiling:at least 12,000 feet AGL
Clouds:sky clear below 12,000 feet AGL
QC Flag:automated observation with no human augmentation
Text:KEDU 200515Z AUTO 20003KT 10SM CLR 15/07 A2991 RMK AO1
Temperature: 15.0°C ( 59°F)
Dewpoint: 7.0°C ( 45°F) [RH = 59%]
Pressure (altimeter):29.91 inches Hg (1013.0 mb)
Winds:from the SSW (200 degrees) at 3 MPH (3 knots; 1.5 m/s)
Visibility:10 or more sm (16+ km)
Ceiling:at least 12,000 feet AGL
Clouds:sky clear below 12,000 feet AGL
QC Flag:automated observation with no human augmentation
Text:KEDU 200455Z AUTO 20006KT 10SM CLR 16/07 A2991 RMK AO1
Temperature: 16.0°C ( 61°F)
Dewpoint: 7.0°C ( 45°F) [RH = 55%]
Pressure (altimeter):29.91 inches Hg (1013.0 mb)
Winds:from the SSW (200 degrees) at 7 MPH (6 knots; 3.1 m/s)
Visibility:10 or more sm (16+ km)
Ceiling:at least 12,000 feet AGL
Clouds:sky clear below 12,000 feet AGL
QC Flag:automated observation with no human augmentation
Text:KEDU 200435Z AUTO 21006KT 10SM CLR 16/07 A2991 RMK AO1
Temperature: 16.0°C ( 61°F)
Dewpoint: 7.0°C ( 45°F) [RH = 55%]
Pressure (altimeter):29.91 inches Hg (1013.0 mb)
Winds:from the SSW (210 degrees) at 7 MPH (6 knots; 3.1 m/s)
Visibility:10 or more sm (16+ km)
Ceiling:at least 12,000 feet AGL
Clouds:sky clear below 12,000 feet AGL
QC Flag:automated observation with no human augmentation
Text:KEDU 200415Z AUTO 20006KT 10SM CLR 16/07 A2992 RMK AO1
Temperature: 16.0°C ( 61°F)
Dewpoint: 7.0°C ( 45°F) [RH = 55%]
Pressure (altimeter):29.92 inches Hg (1013.3 mb)
Winds:from the SSW (200 degrees) at 7 MPH (6 knots; 3.1 m/s)
Visibility:10 or more sm (16+ km)
Ceiling:at least 12,000 feet AGL
Clouds:sky clear below 12,000 feet AGL
QC Flag:automated observation with no human augmentation
Text:KEDU 200355Z AUTO 00000KT 10SM CLR 17/07 A2991 RMK AO1
Temperature: 17.0°C ( 63°F)
Dewpoint: 7.0°C ( 45°F) [RH = 52%]
Pressure (altimeter):29.91 inches Hg (1013.0 mb)
Winds:calm
Visibility:10 or more sm (16+ km)
Ceiling:at least 12,000 feet AGL
Clouds:sky clear below 12,000 feet AGL
QC Flag:automated observation with no human augmentation
Text:KEDU 200335Z AUTO 21003KT 10SM CLR 18/07 A2991 RMK AO1
Temperature: 18.0°C ( 64°F)
Dewpoint: 7.0°C ( 45°F) [RH = 49%]
Pressure (altimeter):29.91 inches Hg (1013.0 mb)
Winds:from the SSW (210 degrees) at 3 MPH (3 knots; 1.5 m/s)
Visibility:10 or more sm (16+ km)
Ceiling:at least 12,000 feet AGL
Clouds:sky clear below 12,000 feet AGL
QC Flag:automated observation with no human augmentation
Text:KEDU 200315Z AUTO 20005KT 10SM CLR 19/07 A2991 RMK AO1
Temperature: 19.0°C ( 66°F)
Dewpoint: 7.0°C ( 45°F) [RH = 46%]
Pressure (altimeter):29.91 inches Hg (1013.0 mb)
Winds:from the SSW (200 degrees) at 6 MPH (5 knots; 2.6 m/s)
Visibility:10 or more sm (16+ km)
Ceiling:at least 12,000 feet AGL
Clouds:sky clear below 12,000 feet AGL
QC Flag:automated observation with no human augmentation
Text:KEDU 200255Z AUTO 00000KT 10SM CLR 20/08 A2990 RMK AO1
Temperature: 20.0°C ( 68°F)
Dewpoint: 8.0°C ( 46°F) [RH = 46%]
Pressure (altimeter):29.90 inches Hg (1012.6 mb)
Winds:calm
Visibility:10 or more sm (16+ km)
Ceiling:at least 12,000 feet AGL
Clouds:sky clear below 12,000 feet AGL
QC Flag:automated observation with no human augmentation
Text:KEDU 200235Z AUTO 20006KT 10SM CLR 22/08 A2990 RMK AO1
Temperature: 22.0°C ( 72°F)
Dewpoint: 8.0°C ( 46°F) [RH = 41%]
Pressure (altimeter):29.90 inches Hg (1012.6 mb)
Winds:from the SSW (200 degrees) at 7 MPH (6 knots; 3.1 m/s)
Visibility:10 or more sm (16+ km)
Ceiling:at least 12,000 feet AGL
Clouds:sky clear below 12,000 feet AGL
QC Flag:automated observation with no human augmentation
Text:KEDU 200215Z AUTO 20005KT 10SM CLR A2990 RMK AO1
Pressure (altimeter):29.90 inches Hg (1012.6 mb)
Winds:from the SSW (200 degrees) at 6 MPH (5 knots; 2.6 m/s)
Visibility:10 or more sm (16+ km)
Ceiling:at least 12,000 feet AGL
Clouds:sky clear below 12,000 feet AGL
QC Flag:automated observation with no human augmentation
Text:KEDU 200155Z AUTO 20009KT 10SM CLR 25/08 A2991 RMK AO1
Temperature: 25.0°C ( 77°F)
Dewpoint: 8.0°C ( 46°F) [RH = 34%]
Pressure (altimeter):29.91 inches Hg (1013.0 mb)
Winds:from the SSW (200 degrees) at 10 MPH (9 knots; 4.6 m/s)
Visibility:10 or more sm (16+ km)
Ceiling:at least 12,000 feet AGL
Clouds:sky clear below 12,000 feet AGL
QC Flag:automated observation with no human augmentation
Text:KEDU 200135Z AUTO 20009KT 10SM CLR 26/08 A2991 RMK AO1
Temperature: 26.0°C ( 79°F)
Dewpoint: 8.0°C ( 46°F) [RH = 32%]
Pressure (altimeter):29.91 inches Hg (1013.0 mb)
Winds:from the SSW (200 degrees) at 10 MPH (9 knots; 4.6 m/s)
Visibility:10 or more sm (16+ km)
Ceiling:at least 12,000 feet AGL
Clouds:sky clear below 12,000 feet AGL
QC Flag:automated observation with no human augmentation
Text:KEDU 200115Z AUTO 21007KT 10SM CLR 27/09 A2992 RMK AO1
Temperature: 27.0°C ( 81°F)
Dewpoint: 9.0°C ( 48°F) [RH = 32%]
Pressure (altimeter):29.92 inches Hg (1013.3 mb)
Winds:from the SSW (210 degrees) at 8 MPH (7 knots; 3.6 m/s)
Visibility:10 or more sm (16+ km)
Ceiling:at least 12,000 feet AGL
Clouds:sky clear below 12,000 feet AGL
QC Flag:automated observation with no human augmentation
Text:KEDU 200055Z AUTO 19009KT 10SM CLR 27/09 A2992 RMK AO1
Temperature: 27.0°C ( 81°F)
Dewpoint: 9.0°C ( 48°F) [RH = 32%]
Pressure (altimeter):29.92 inches Hg (1013.3 mb)
Winds:from the S (190 degrees) at 10 MPH (9 knots; 4.6 m/s)
Visibility:10 or more sm (16+ km)
Ceiling:at least 12,000 feet AGL
Clouds:sky clear below 12,000 feet AGL
QC Flag:automated observation with no human augmentation
Text:KEDU 200035Z AUTO 19009KT 10SM CLR 28/09 A2993 RMK AO1
Temperature: 28.0°C ( 82°F)
Dewpoint: 9.0°C ( 48°F) [RH = 30%]
Pressure (altimeter):29.93 inches Hg (1013.6 mb)
Winds:from the S (190 degrees) at 10 MPH (9 knots; 4.6 m/s)
Visibility:10 or more sm (16+ km)
Ceiling:at least 12,000 feet AGL
Clouds:sky clear below 12,000 feet AGL
QC Flag:automated observation with no human augmentation
Text:KEDU 200015Z AUTO 19011KT 10SM CLR 28/08 A2993 RMK AO1
Temperature: 28.0°C ( 82°F)
Dewpoint: 8.0°C ( 46°F) [RH = 28%]
Pressure (altimeter):29.93 inches Hg (1013.6 mb)
Winds:from the S (190 degrees) at 13 MPH (11 knots; 5.7 m/s)
Visibility:10 or more sm (16+ km)
Ceiling:at least 12,000 feet AGL
Clouds:sky clear below 12,000 feet AGL
QC Flag:automated observation with no human augmentation
Text:KEDU 192355Z AUTO 20011KT 10SM CLR 29/06 A2993 RMK AO1
Temperature: 29.0°C ( 84°F)
Dewpoint: 6.0°C ( 43°F) [RH = 23%]
Pressure (altimeter):29.93 inches Hg (1013.6 mb)
Winds:from the SSW (200 degrees) at 13 MPH (11 knots; 5.7 m/s)
Visibility:10 or more sm (16+ km)
Ceiling:at least 12,000 feet AGL
Clouds:sky clear below 12,000 feet AGL
QC Flag:automated observation with no human augmentation
Text:KEDU 192335Z AUTO 19009KT 10SM CLR 29/07 A2994 RMK AO1
Temperature: 29.0°C ( 84°F)
Dewpoint: 7.0°C ( 45°F) [RH = 25%]
Pressure (altimeter):29.94 inches Hg (1014.0 mb)
Winds:from the S (190 degrees) at 10 MPH (9 knots; 4.6 m/s)
Visibility:10 or more sm (16+ km)
Ceiling:at least 12,000 feet AGL
Clouds:sky clear below 12,000 feet AGL
QC Flag:automated observation with no human augmentation